sensor_id;sensor_type;location;lat;lon;timestamp;pressure;altitude;pressure_sealevel;temperature
70819;BMP280;58439;51.046;13.692;2022-12-20T00:02:54;100690.28;;;0.45
70819;BMP280;58439;51.046;13.692;2022-12-20T00:05:48;100693.19;;;0.41
70819;BMP280;58439;51.046;13.692;2022-12-20T00:08:16;100687.09;;;0.42
70819;BMP280;58439;51.046;13.692;2022-12-20T00:10:44;100691.31;;;0.43
70819;BMP280;58439;51.046;13.692;2022-12-20T00:13:12;100674.66;;;0.48
70819;BMP280;58439;51.046;13.692;2022-12-20T00:15:39;100675.25;;;0.52
70819;BMP280;58439;51.046;13.692;2022-12-20T00:18:06;100663.91;;;0.55
70819;BMP280;58439;51.046;13.692;2022-12-20T00:20:47;100646.63;;;0.57
70819;BMP280;58439;51.046;13.692;2022-12-20T00:23:14;100641.81;;;0.52
70819;BMP280;58439;51.046;13.692;2022-12-20T00:25:41;100635.59;;;0.55
70819;BMP280;58439;51.046;13.692;2022-12-20T00:28:08;100645.28;;;0.51
70819;BMP280;58439;51.046;13.692;2022-12-20T00:30:35;100659.28;;;0.47
70819;BMP280;58439;51.046;13.692;2022-12-20T00:33:03;100662.00;;;0.45
70819;BMP280;58439;51.046;13.692;2022-12-20T00:35:30;100672.28;;;0.45
70819;BMP280;58439;51.046;13.692;2022-12-20T00:37:58;100659.09;;;0.50
70819;BMP280;58439;51.046;13.692;2022-12-20T00:51:54;100654.28;;;0.33
70819;BMP280;58439;51.046;13.692;2022-12-20T00:55:46;100657.81;;;0.32
70819;BMP280;58439;51.046;13.692;2022-12-20T00:58:19;100658.03;;;0.29
70819;BMP280;58439;51.046;13.692;2022-12-20T01:01:03;100647.50;;;0.32
70819;BMP280;58439;51.046;13.692;2022-12-20T01:03:30;100649.31;;;0.42
70819;BMP280;58439;51.046;13.692;2022-12-20T01:06:00;100648.09;;;0.48
70819;BMP280;58439;51.046;13.692;2022-12-20T01:08:30;100634.16;;;0.63
70819;BMP280;58439;51.046;13.692;2022-12-20T01:11:07;100628.88;;;0.78
70819;BMP280;58439;51.046;13.692;2022-12-20T01:13:38;100639.75;;;0.81
70819;BMP280;58439;51.046;13.692;2022-12-20T01:16:35;100631.09;;;0.82
70819;BMP280;58439;51.046;13.692;2022-12-20T01:19:05;100624.72;;;0.88
70819;BMP280;58439;51.046;13.692;2022-12-20T01:21:34;100622.50;;;0.94
70819;BMP280;58439;51.046;13.692;2022-12-20T01:24:01;100616.22;;;0.98
70819;BMP280;58439;51.046;13.692;2022-12-20T01:26:29;100626.28;;;1.02
70819;BMP280;58439;51.046;13.692;2022-12-20T01:28:59;100634.16;;;1.00
70819;BMP280;58439;51.046;13.692;2022-12-20T01:35:38;100648.44;;;1.04
70819;BMP280;58439;51.046;13.692;2022-12-20T01:38:06;100641.41;;;1.06
70819;BMP280;58439;51.046;13.692;2022-12-20T01:40:33;100629.13;;;1.10
70819;BMP280;58439;51.046;13.692;2022-12-20T01:43:00;100625.63;;;1.11
70819;BMP280;58439;51.046;13.692;2022-12-20T01:45:29;100640.88;;;1.14
70819;BMP280;58439;51.046;13.692;2022-12-20T01:47:59;100637.25;;;1.16
70819;BMP280;58439;51.046;13.692;2022-12-20T01:50:26;100625.06;;;1.18
70819;BMP280;58439;51.046;13.692;2022-12-20T01:52:54;100625.59;;;1.23
70819;BMP280;58439;51.046;13.692;2022-12-20T01:55:25;100632.16;;;1.28
70819;BMP280;58439;51.046;13.692;2022-12-20T01:58:04;100614.94;;;1.28
70819;BMP280;58439;51.046;13.692;2022-12-20T02:00:31;100616.47;;;1.31
70819;BMP280;58439;51.046;13.692;2022-12-20T02:03:04;100621.38;;;1.34
70819;BMP280;58439;51.046;13.692;2022-12-20T02:05:38;100618.81;;;1.34
70819;BMP280;58439;51.046;13.692;2022-12-20T02:08:07;100616.81;;;1.37
70819;BMP280;58439;51.046;13.692;2022-12-20T02:10:46;100623.50;;;1.40
70819;BMP280;58439;51.046;13.692;2022-12-20T02:16:26;100625.13;;;1.41
70819;BMP280;58439;51.046;13.692;2022-12-20T02:19:31;100612.38;;;1.39
70819;BMP280;58439;51.046;13.692;2022-12-20T02:27:36;100614.47;;;1.45
70819;BMP280;58439;51.046;13.692;2022-12-20T02:30:22;100611.09;;;1.45
70819;BMP280;58439;51.046;13.692;2022-12-20T02:33:07;100618.59;;;1.48
70819;BMP280;58439;51.046;13.692;2022-12-20T02:35:38;100627.16;;;1.48
70819;BMP280;58439;51.046;13.692;2022-12-20T02:38:28;100621.19;;;1.48
70819;BMP280;58439;51.046;13.692;2022-12-20T02:41:18;100622.13;;;1.47
70819;BMP280;58439;51.046;13.692;2022-12-20T02:43:55;100619.28;;;1.50
70819;BMP280;58439;51.046;13.692;2022-12-20T02:46:44;100626.44;;;1.46
70819;BMP280;58439;51.046;13.692;2022-12-20T02:49:18;100630.06;;;1.44
70819;BMP280;58439;51.046;13.692;2022-12-20T02:51:51;100611.44;;;1.40
70819;BMP280;58439;51.046;13.692;2022-12-20T02:54:19;100605.47;;;1.40
70819;BMP280;58439;51.046;13.692;2022-12-20T02:56:56;100605.34;;;1.41
70819;BMP280;58439;51.046;13.692;2022-12-20T02:59:38;100597.72;;;1.40
70819;BMP280;58439;51.046;13.692;2022-12-20T03:02:07;100602.28;;;1.36
70819;BMP280;58439;51.046;13.692;2022-12-20T03:04:38;100610.84;;;1.37
70819;BMP280;58439;51.046;13.692;2022-12-20T03:07:13;100596.09;;;1.39
70819;BMP280;58439;51.046;13.692;2022-12-20T03:09:43;100595.03;;;1.41
70819;BMP280;58439;51.046;13.692;2022-12-20T03:12:13;100592.22;;;1.44
70819;BMP280;58439;51.046;13.692;2022-12-20T03:14:42;100592.09;;;1.46
70819;BMP280;58439;51.046;13.692;2022-12-20T03:17:12;100586.84;;;1.47
70819;BMP280;58439;51.046;13.692;2022-12-20T03:19:39;100589.09;;;1.52
70819;BMP280;58439;51.046;13.692;2022-12-20T03:22:06;100591.53;;;1.54
70819;BMP280;58439;51.046;13.692;2022-12-20T03:24:33;100596.25;;;1.60
70819;BMP280;58439;51.046;13.692;2022-12-20T03:27:05;100601.41;;;1.60
70819;BMP280;58439;51.046;13.692;2022-12-20T03:29:32;100596.84;;;1.63
70819;BMP280;58439;51.046;13.692;2022-12-20T03:31:59;100595.19;;;1.62
70819;BMP280;58439;51.046;13.692;2022-12-20T03:34:27;100581.72;;;1.59
70819;BMP280;58439;51.046;13.692;2022-12-20T03:36:54;100584.31;;;1.59
70819;BMP280;58439;51.046;13.692;2022-12-20T03:39:21;100589.56;;;1.57
70819;BMP280;58439;51.046;13.692;2022-12-20T03:41:52;100591.31;;;1.57
70819;BMP280;58439;51.046;13.692;2022-12-20T03:44:19;100581.59;;;1.60
70819;BMP280;58439;51.046;13.692;2022-12-20T03:46:46;100580.56;;;1.63
70819;BMP280;58439;51.046;13.692;2022-12-20T03:49:13;100591.91;;;1.60
70819;BMP280;58439;51.046;13.692;2022-12-20T03:51:45;100580.66;;;1.61
70819;BMP280;58439;51.046;13.692;2022-12-20T03:54:13;100581.00;;;1.57
70819;BMP280;58439;51.046;13.692;2022-12-20T03:56:57;100590.38;;;1.58
70819;BMP280;58439;51.046;13.692;2022-12-20T03:59:25;100586.03;;;1.58
70819;BMP280;58439;51.046;13.692;2022-12-20T04:01:52;100590.16;;;1.61
70819;BMP280;58439;51.046;13.692;2022-12-20T04:04:19;100578.22;;;1.60
70819;BMP280;58439;51.046;13.692;2022-12-20T04:06:46;100576.31;;;1.62
70819;BMP280;58439;51.046;13.692;2022-12-20T04:09:15;100583.84;;;1.65
70819;BMP280;58439;51.046;13.692;2022-12-20T04:11:47;100576.81;;;1.67
70819;BMP280;58439;51.046;13.692;2022-12-20T04:14:15;100582.88;;;1.66
70819;BMP280;58439;51.046;13.692;2022-12-20T04:16:43;100576.00;;;1.66
70819;BMP280;58439;51.046;13.692;2022-12-20T04:19:10;100579.28;;;1.68
70819;BMP280;58439;51.046;13.692;2022-12-20T04:21:44;100575.75;;;1.69
70819;BMP280;58439;51.046;13.692;2022-12-20T04:24:12;100581.16;;;1.66
70819;BMP280;58439;51.046;13.692;2022-12-20T04:26:54;100580.31;;;1.66
70819;BMP280;58439;51.046;13.692;2022-12-20T04:29:21;100577.63;;;1.67
70819;BMP280;58439;51.046;13.692;2022-12-20T04:31:49;100573.28;;;1.68
70819;BMP280;58439;51.046;13.692;2022-12-20T04:34:17;100568.28;;;1.66
70819;BMP280;58439;51.046;13.692;2022-12-20T04:36:44;100564.75;;;1.67
70819;BMP280;58439;51.046;13.692;2022-12-20T04:39:18;100562.16;;;1.67
70819;BMP280;58439;51.046;13.692;2022-12-20T04:42:08;100574.34;;;1.65
70819;BMP280;58439;51.046;13.692;2022-12-20T04:44:35;100565.09;;;1.63
70819;BMP280;58439;51.046;13.692;2022-12-20T04:47:03;100563.44;;;1.62
70819;BMP280;58439;51.046;13.692;2022-12-20T04:49:31;100562.03;;;1.58
70819;BMP280;58439;51.046;13.692;2022-12-20T04:51:58;100562.03;;;1.58
70819;BMP280;58439;51.046;13.692;2022-12-20T04:54:46;100561.81;;;1.61
70819;BMP280;58439;51.046;13.692;2022-12-20T04:57:18;100554.06;;;1.61
70819;BMP280;58439;51.046;13.692;2022-12-20T04:59:46;100556.78;;;1.59
70819;BMP280;58439;51.046;13.692;2022-12-20T05:02:13;100562.03;;;1.58
70819;BMP280;58439;51.046;13.692;2022-12-20T05:04:50;100553.59;;;1.56
70819;BMP280;58439;51.046;13.692;2022-12-20T05:07:17;100543.06;;;1.59
70819;BMP280;58439;51.046;13.692;2022-12-20T05:09:50;100549.72;;;1.61
70819;BMP280;58439;51.046;13.692;2022-12-20T05:12:17;100547.16;;;1.61
70819;BMP280;58439;51.046;13.692;2022-12-20T05:14:44;100547.97;;;1.62
70819;BMP280;58439;51.046;13.692;2022-12-20T05:17:14;100541.19;;;1.61
70819;BMP280;58439;51.046;13.692;2022-12-20T05:19:41;100546.09;;;1.64
70819;BMP280;58439;51.046;13.692;2022-12-20T05:22:12;100542.59;;;1.65
70819;BMP280;58439;51.046;13.692;2022-12-20T05:25:04;100542.38;;;1.68
70819;BMP280;58439;51.046;13.692;2022-12-20T05:27:52;100535.31;;;1.70
70819;BMP280;58439;51.046;13.692;2022-12-20T05:30:24;100536.97;;;1.71
70819;BMP280;58439;51.046;13.692;2022-12-20T05:32:51;100536.03;;;1.72
70819;BMP280;58439;51.046;13.692;2022-12-20T05:35:19;100541.19;;;1.72
70819;BMP280;58439;51.046;13.692;2022-12-20T05:37:51;100534.41;;;1.71
70819;BMP280;58439;51.046;13.692;2022-12-20T05:40:20;100524.91;;;1.71
70819;BMP280;58439;51.046;13.692;2022-12-20T05:42:48;100522.19;;;1.73
70819;BMP280;58439;51.046;13.692;2022-12-20T05:45:16;100516.34;;;1.71
70819;BMP280;58439;51.046;13.692;2022-12-20T05:47:49;100520.44;;;1.73
70819;BMP280;58439;51.046;13.692;2022-12-20T05:50:17;100512.81;;;1.72
70819;BMP280;58439;51.046;13.692;2022-12-20T05:53:03;100516.81;;;1.76
70819;BMP280;58439;51.046;13.692;2022-12-20T05:55:47;100517.63;;;1.77
70819;BMP280;58439;51.046;13.692;2022-12-20T05:58:15;100517.50;;;1.78
70819;BMP280;58439;51.046;13.692;2022-12-20T06:00:52;100511.44;;;1.79
70819;BMP280;58439;51.046;13.692;2022-12-20T06:03:20;100521.75;;;1.79
70819;BMP280;58439;51.046;13.692;2022-12-20T06:05:49;100511.19;;;1.82
70819;BMP280;58439;51.046;13.692;2022-12-20T06:08:23;100510.25;;;1.83
70819;BMP280;58439;51.046;13.692;2022-12-20T06:10:52;100505.53;;;1.88
70819;BMP280;58439;51.046;13.692;2022-12-20T06:13:20;100497.94;;;1.87
70819;BMP280;58439;51.046;13.692;2022-12-20T06:15:49;100508.09;;;1.88
70819;BMP280;58439;51.046;13.692;2022-12-20T06:18:18;100510.44;;;1.91
70819;BMP280;58439;51.046;13.692;2022-12-20T06:20:51;100511.41;;;1.90
70819;BMP280;58439;51.046;13.692;2022-12-20T06:23:22;100514.88;;;1.89
70819;BMP280;58439;51.046;13.692;2022-12-20T06:26:03;100520.88;;;1.90
70819;BMP280;58439;51.046;13.692;2022-12-20T06:28:34;100527.91;;;1.88
70819;BMP280;58439;51.046;13.692;2022-12-20T06:31:09;100519.41;;;1.87
70819;BMP280;58439;51.046;13.692;2022-12-20T06:33:47;100519.22;;;1.89
70819;BMP280;58439;51.046;13.692;2022-12-20T06:36:15;100510.69;;;1.88
70819;BMP280;58439;51.046;13.692;2022-12-20T06:38:43;100515.72;;;1.90
70819;BMP280;58439;51.046;13.692;2022-12-20T06:41:10;100509.19;;;1.86
70819;BMP280;58439;51.046;13.692;2022-12-20T06:43:38;100517.75;;;1.86
70819;BMP280;58439;51.046;13.692;2022-12-20T06:46:05;100517.59;;;1.88
70819;BMP280;58439;51.046;13.692;2022-12-20T06:48:32;100517.59;;;1.88
70819;BMP280;58439;51.046;13.692;2022-12-20T06:50:59;100526.41;;;1.85
70819;BMP280;58439;51.046;13.692;2022-12-20T06:53:27;100519.50;;;1.86
70819;BMP280;58439;51.046;13.692;2022-12-20T06:55:54;100525.59;;;1.85
70819;BMP280;58439;51.046;13.692;2022-12-20T06:58:22;100535.81;;;1.86
70819;BMP280;58439;51.046;13.692;2022-12-20T07:00:49;100540.13;;;1.86
70819;BMP280;58439;51.046;13.692;2022-12-20T07:03:16;100534.16;;;1.85
70819;BMP280;58439;51.046;13.692;2022-12-20T07:05:44;100539.31;;;1.85
70819;BMP280;58439;51.046;13.692;2022-12-20T07:08:11;100541.78;;;1.87
70819;BMP280;58439;51.046;13.692;2022-12-20T07:10:38;100525.34;;;1.88
70819;BMP280;58439;51.046;13.692;2022-12-20T07:13:05;100533.75;;;1.90
70819;BMP280;58439;51.046;13.692;2022-12-20T07:15:32;100531.09;;;1.91
70819;BMP280;58439;51.046;13.692;2022-12-20T07:17:59;100521.16;;;1.87
70819;BMP280;58439;51.046;13.692;2022-12-20T07:20:28;100518.69;;;1.85
70819;BMP280;58439;51.046;13.692;2022-12-20T07:22:55;100518.59;;;1.87
70819;BMP280;58439;51.046;13.692;2022-12-20T07:25:22;100498.38;;;1.92
70819;BMP280;58439;51.046;13.692;2022-12-20T07:27:51;100504.69;;;1.99
70819;BMP280;58439;51.046;13.692;2022-12-20T07:30:19;100496.72;;;2.02
70819;BMP280;58439;51.046;13.692;2022-12-20T07:32:47;100493.88;;;2.05
70819;BMP280;58439;51.046;13.692;2022-12-20T07:35:14;100489.53;;;2.06
70819;BMP280;58439;51.046;13.692;2022-12-20T07:37:41;100497.75;;;2.11
70819;BMP280;58439;51.046;13.692;2022-12-20T07:40:11;100488.94;;;2.13
70819;BMP280;58439;51.046;13.692;2022-12-20T07:42:38;100495.50;;;2.17
70819;BMP280;58439;51.046;13.692;2022-12-20T07:45:14;100492.81;;;2.19
70819;BMP280;58439;51.046;13.692;2022-12-20T07:47:41;100492.94;;;2.17
70819;BMP280;58439;51.046;13.692;2022-12-20T07:50:10;100504.09;;;2.18
70819;BMP280;58439;51.046;13.692;2022-12-20T07:52:41;100508.88;;;2.22
70819;BMP280;58439;51.046;13.692;2022-12-20T07:55:11;100503.38;;;2.27
70819;BMP280;58439;51.046;13.692;2022-12-20T07:57:48;100503.59;;;2.24
70819;BMP280;58439;51.046;13.692;2022-12-20T08:00:17;100503.84;;;2.21
70819;BMP280;58439;51.046;13.692;2022-12-20T08:02:53;100517.69;;;2.20
70819;BMP280;58439;51.046;13.692;2022-12-20T08:05:22;100530.72;;;2.18
70819;BMP280;58439;51.046;13.692;2022-12-20T08:07:51;100528.88;;;1.98
70819;BMP280;58439;51.046;13.692;2022-12-20T08:10:26;100523.56;;;1.99
70819;BMP280;58439;51.046;13.692;2022-12-20T08:12:55;100518.28;;;2.01
70819;BMP280;58439;51.046;13.692;2022-12-20T08:15:24;100521.34;;;2.06
70819;BMP280;58439;51.046;13.692;2022-12-20T08:17:51;100517.69;;;2.09
70819;BMP280;58439;51.046;13.692;2022-12-20T08:20:18;100509.50;;;2.15
70819;BMP280;58439;51.046;13.692;2022-12-20T08:22:45;100519.91;;;2.24
70819;BMP280;58439;51.046;13.692;2022-12-20T08:25:12;100513.69;;;2.27
70819;BMP280;58439;51.046;13.692;2022-12-20T08:27:40;100508.38;;;2.29
70819;BMP280;58439;51.046;13.692;2022-12-20T08:30:08;100507.31;;;2.31
70819;BMP280;58439;51.046;13.692;2022-12-20T08:32:37;100506.25;;;2.34
70819;BMP280;58439;51.046;13.692;2022-12-20T08:35:05;100514.09;;;2.32
70819;BMP280;58439;51.046;13.692;2022-12-20T08:37:33;100518.31;;;2.33
70819;BMP280;58439;51.046;13.692;2022-12-20T08:40:00;100521.44;;;2.27
70819;BMP280;58439;51.046;13.692;2022-12-20T08:42:28;100526.13;;;2.22
70819;BMP280;58439;51.046;13.692;2022-12-20T08:44:55;100524.75;;;2.18
70819;BMP280;58439;51.046;13.692;2022-12-20T08:47:22;100521.66;;;2.13
70819;BMP280;58439;51.046;13.692;2022-12-20T08:49:49;100514.06;;;2.11
70819;BMP280;58439;51.046;13.692;2022-12-20T08:52:16;100514.06;;;2.22
70819;BMP280;58439;51.046;13.692;2022-12-20T08:54:43;100521.47;;;2.37
70819;BMP280;58439;51.046;13.692;2022-12-20T08:57:11;100522.03;;;2.52
70819;BMP280;58439;51.046;13.692;2022-12-20T08:59:39;100527.03;;;2.64
70819;BMP280;58439;51.046;13.692;2022-12-20T09:02:06;100523.28;;;2.89
70819;BMP280;58439;51.046;13.692;2022-12-20T09:04:34;100531.78;;;3.22
70819;BMP280;58439;51.046;13.692;2022-12-20T09:07:01;100531.94;;;3.30
70819;BMP280;58439;51.046;13.692;2022-12-20T09:09:28;100530.09;;;3.42
70819;BMP280;58439;51.046;13.692;2022-12-20T09:16:04;100541.00;;;3.45
70819;BMP280;58439;51.046;13.692;2022-12-20T09:18:33;100538.88;;;3.30
70819;BMP280;58439;51.046;13.692;2022-12-20T09:21:03;100539.69;;;3.30
70819;BMP280;58439;51.046;13.692;2022-12-20T09:23:33;100535.19;;;3.32
70819;BMP280;58439;51.046;13.692;2022-12-20T09:26:29;100537.97;;;3.40
70819;BMP280;58439;51.046;13.692;2022-12-20T09:28:57;100540.75;;;3.48
70819;BMP280;58439;51.046;13.692;2022-12-20T09:31:25;100546.19;;;3.55
70819;BMP280;58439;51.046;13.692;2022-12-20T09:33:58;100534.06;;;3.56
70819;BMP280;58439;51.046;13.692;2022-12-20T09:36:28;100527.41;;;3.53
70819;BMP280;58439;51.046;13.692;2022-12-20T09:38:55;100533.31;;;3.65
70819;BMP280;58439;51.046;13.692;2022-12-20T09:41:32;100538.78;;;3.71
70819;BMP280;58439;51.046;13.692;2022-12-20T09:44:19;100533.06;;;3.77
70819;BMP280;58439;51.046;13.692;2022-12-20T09:46:58;100535.25;;;3.82
70819;BMP280;58439;51.046;13.692;2022-12-20T09:49:41;100544.13;;;3.99
70819;BMP280;58439;51.046;13.692;2022-12-20T09:52:46;100552.34;;;4.23
70819;BMP280;58439;51.046;13.692;2022-12-20T09:55:31;100538.09;;;4.29
70819;BMP280;58439;51.046;13.692;2022-12-20T10:00:47;100539.72;;;4.30
70819;BMP280;58439;51.046;13.692;2022-12-20T10:03:27;100545.28;;;4.25
70819;BMP280;58439;51.046;13.692;2022-12-20T10:06:09;100550.88;;;4.21
70819;BMP280;58439;51.046;13.692;2022-12-20T10:08:58;100557.09;;;3.89
70819;BMP280;58439;51.046;13.692;2022-12-20T10:11:53;100557.47;;;3.54
70819;BMP280;58439;51.046;13.692;2022-12-20T10:14:33;100558.44;;;3.53
70819;BMP280;58439;51.046;13.692;2022-12-20T10:23:09;100532.13;;;3.38
70819;BMP280;58439;51.046;13.692;2022-12-20T10:25:40;100531.97;;;3.40
70819;BMP280;58439;51.046;13.692;2022-12-20T10:28:14;100521.59;;;3.30
70819;BMP280;58439;51.046;13.692;2022-12-20T10:30:43;100528.78;;;3.26
70819;BMP280;58439;51.046;13.692;2022-12-20T10:33:20;100527.41;;;3.22
70819;BMP280;58439;51.046;13.692;2022-12-20T10:35:49;100519.66;;;3.22
70819;BMP280;58439;51.046;13.692;2022-12-20T10:38:17;100519.91;;;3.19
70819;BMP280;58439;51.046;13.692;2022-12-20T10:41:01;100521.00;;;3.17
70819;BMP280;58439;51.046;13.692;2022-12-20T10:44:22;100505.22;;;3.20
70819;BMP280;58439;51.046;13.692;2022-12-20T10:46:59;100506.41;;;3.16
70819;BMP280;58439;51.046;13.692;2022-12-20T10:49:37;100497.84;;;3.15
70819;BMP280;58439;51.046;13.692;2022-12-20T10:54:42;100488.78;;;3.21
70819;BMP280;58439;51.046;13.692;2022-12-20T10:57:24;100487.56;;;3.25
70819;BMP280;58439;51.046;13.692;2022-12-20T10:59:59;100491.47;;;3.19
70819;BMP280;58439;51.046;13.692;2022-12-20T11:02:32;100492.81;;;3.14
70819;BMP280;58439;51.046;13.692;2022-12-20T11:08:08;100474.09;;;3.21
70819;BMP280;58439;51.046;13.692;2022-12-20T11:11:35;100449.06;;;3.32
70819;BMP280;58439;51.046;13.692;2022-12-20T11:14:14;100442.31;;;3.40
70819;BMP280;58439;51.046;13.692;2022-12-20T11:16:45;100437.34;;;3.68
70819;BMP280;58439;51.046;13.692;2022-12-20T11:19:42;100429.84;;;4.52
70819;BMP280;58439;51.046;13.692;2022-12-20T11:22:47;100419.59;;;5.88
70819;BMP280;58439;51.046;13.692;2022-12-20T11:25:30;100426.47;;;7.01
70819;BMP280;58439;51.046;13.692;2022-12-20T11:28:13;100432.31;;;7.78
70819;BMP280;58439;51.046;13.692;2022-12-20T11:31:05;100433.84;;;8.52
70819;BMP280;58439;51.046;13.692;2022-12-20T11:36:45;100411.78;;;8.24
70819;BMP280;58439;51.046;13.692;2022-12-20T11:39:47;100419.53;;;7.26
70819;BMP280;58439;51.046;13.692;2022-12-20T11:43:03;100410.09;;;5.43
70819;BMP280;58439;51.046;13.692;2022-12-20T11:51:23;100405.50;;;4.06
70819;BMP280;58439;51.046;13.692;2022-12-20T11:54:11;100411.50;;;4.07
70819;BMP280;58439;51.046;13.692;2022-12-20T11:56:43;100411.38;;;4.08
70819;BMP280;58439;51.046;13.692;2022-12-20T12:02:12;100397.69;;;6.34
70819;BMP280;58439;51.046;13.692;2022-12-20T12:04:57;100404.00;;;7.83
70819;BMP280;58439;51.046;13.692;2022-12-20T12:07:32;100395.63;;;9.07
70819;BMP280;58439;51.046;13.692;2022-12-20T12:10:36;100399.69;;;9.78
70819;BMP280;58439;51.046;13.692;2022-12-20T12:13:17;100390.50;;;7.71
70819;BMP280;58439;51.046;13.692;2022-12-20T12:18:43;100364.22;;;4.24
70819;BMP280;58439;51.046;13.692;2022-12-20T12:21:36;100354.31;;;3.61
70819;BMP280;58439;51.046;13.692;2022-12-20T12:24:26;100343.66;;;3.35
70819;BMP280;58439;51.046;13.692;2022-12-20T12:26:58;100345.94;;;3.19
70819;BMP280;58439;51.046;13.692;2022-12-20T12:29:28;100345.63;;;3.12
70819;BMP280;58439;51.046;13.692;2022-12-20T12:32:07;100331.22;;;3.10
70819;BMP280;58439;51.046;13.692;2022-12-20T12:38:14;100337.16;;;3.00
70819;BMP280;58439;51.046;13.692;2022-12-20T12:44:21;100333.09;;;2.98
70819;BMP280;58439;51.046;13.692;2022-12-20T12:47:01;100334.97;;;2.96
70819;BMP280;58439;51.046;13.692;2022-12-20T12:49:32;100326.28;;;2.97
70819;BMP280;58439;51.046;13.692;2022-12-20T12:52:03;100329.00;;;2.95
70819;BMP280;58439;51.046;13.692;2022-12-20T12:54:39;100334.97;;;2.96
70819;BMP280;58439;51.046;13.692;2022-12-20T12:57:15;100326.81;;;3.00
70819;BMP280;58439;51.046;13.692;2022-12-20T12:59:46;100331.31;;;2.98
70819;BMP280;58439;51.046;13.692;2022-12-20T13:07:52;100322.34;;;3.03
70819;BMP280;58439;51.046;13.692;2022-12-20T13:17:55;100291.47;;;2.91
70819;BMP280;58439;51.046;13.692;2022-12-20T13:20:30;100293.63;;;2.86
70819;BMP280;58439;51.046;13.692;2022-12-20T13:25:45;100288.47;;;2.86
70819;BMP280;58439;51.046;13.692;2022-12-20T13:33:41;100268.88;;;2.84
70819;BMP280;58439;51.046;13.692;2022-12-20T13:41:34;100272.00;;;2.78
70819;BMP280;58439;51.046;13.692;2022-12-20T13:49:47;100250.84;;;2.53
70819;BMP280;58439;51.046;13.692;2022-12-20T13:52:26;100244.03;;;2.52
70819;BMP280;58439;51.046;13.692;2022-12-20T13:54:59;100261.69;;;2.47
70819;BMP280;58439;51.046;13.692;2022-12-20T13:57:32;100265.78;;;2.49
70819;BMP280;58439;51.046;13.692;2022-12-20T14:00:16;100263.22;;;2.49
70819;BMP280;58439;51.046;13.692;2022-12-20T14:02:44;100250.41;;;2.48
70819;BMP280;58439;51.046;13.692;2022-12-20T14:05:15;100250.31;;;2.49
70819;BMP280;58439;51.046;13.692;2022-12-20T14:07:47;100244.56;;;2.46
70819;BMP280;58439;51.046;13.692;2022-12-20T14:10:23;100246.69;;;2.41
70819;BMP280;58439;51.046;13.692;2022-12-20T14:12:51;100242.88;;;2.35
70819;BMP280;58439;51.046;13.692;2022-12-20T14:15:33;100250.75;;;2.34
70819;BMP280;58439;51.046;13.692;2022-12-20T14:18:05;100252.00;;;2.39
70819;BMP280;58439;51.046;13.692;2022-12-20T14:20:42;100247.53;;;2.41
70819;BMP280;58439;51.046;13.692;2022-12-20T14:23:18;100242.09;;;2.44
70819;BMP280;58439;51.046;13.692;2022-12-20T14:25:55;100246.06;;;2.48
70819;BMP280;58439;51.046;13.692;2022-12-20T14:28:37;100235.63;;;2.50
70819;BMP280;58439;51.046;13.692;2022-12-20T14:31:23;100234.69;;;2.51
70819;BMP280;58439;51.046;13.692;2022-12-20T14:34:01;100235.06;;;2.46
70819;BMP280;58439;51.046;13.692;2022-12-20T14:36:29;100228.28;;;2.45
70819;BMP280;58439;51.046;13.692;2022-12-20T14:38:57;100230.84;;;2.45
70819;BMP280;58439;51.046;13.692;2022-12-20T14:46:34;100203.22;;;2.36
70819;BMP280;58439;51.046;13.692;2022-12-20T14:52:14;100211.66;;;2.38
70819;BMP280;58439;51.046;13.692;2022-12-20T14:55:18;100201.31;;;2.29
70819;BMP280;58439;51.046;13.692;2022-12-20T14:57:54;100192.34;;;2.23
70819;BMP280;58439;51.046;13.692;2022-12-20T15:00:27;100190.72;;;2.22
70819;BMP280;58439;51.046;13.692;2022-12-20T15:08:31;100221.69;;;2.32
70819;BMP280;58439;51.046;13.692;2022-12-20T15:13:44;100199.44;;;2.40
70819;BMP280;58439;51.046;13.692;2022-12-20T15:16:19;100204.59;;;2.40
70819;BMP280;58439;51.046;13.692;2022-12-20T15:18:59;100216.28;;;2.44
70819;BMP280;58439;51.046;13.692;2022-12-20T15:21:40;100213.47;;;2.47
70819;BMP280;58439;51.046;13.692;2022-12-20T15:24:17;100211.13;;;2.44
70819;BMP280;58439;51.046;13.692;2022-12-20T15:26:48;100209.13;;;2.48
70819;BMP280;58439;51.046;13.692;2022-12-20T15:29:21;100222.03;;;2.48
70819;BMP280;58439;51.046;13.692;2022-12-20T15:31:51;100215.78;;;2.50
70819;BMP280;58439;51.046;13.692;2022-12-20T15:34:29;100201.94;;;2.52
70819;BMP280;58439;51.046;13.692;2022-12-20T15:36:58;100220.38;;;2.47
70819;BMP280;58439;51.046;13.692;2022-12-20T15:39:28;100207.50;;;2.47
70819;BMP280;58439;51.046;13.692;2022-12-20T15:42:00;100212.91;;;2.44
70819;BMP280;58439;51.046;13.692;2022-12-20T15:44:30;100221.59;;;2.43
70819;BMP280;58439;51.046;13.692;2022-12-20T15:46:57;100224.50;;;2.49
70819;BMP280;58439;51.046;13.692;2022-12-20T15:49:28;100227.06;;;2.49
70819;BMP280;58439;51.046;13.692;2022-12-20T15:51:57;100221.22;;;2.47
70819;BMP280;58439;51.046;13.692;2022-12-20T15:54:35;100228.94;;;2.47
70819;BMP280;58439;51.046;13.692;2022-12-20T15:57:06;100213.59;;;2.46
70819;BMP280;58439;51.046;13.692;2022-12-20T15:59:36;100205.72;;;2.47
70819;BMP280;58439;51.046;13.692;2022-12-20T16:02:26;100202.88;;;2.50
70819;BMP280;58439;51.046;13.692;2022-12-20T16:04:54;100206.13;;;2.53
70819;BMP280;58439;51.046;13.692;2022-12-20T16:07:27;100211.59;;;2.49
70819;BMP280;58439;51.046;13.692;2022-12-20T16:09:55;100200.31;;;2.50
70819;BMP280;58439;51.046;13.692;2022-12-20T16:12:30;100205.56;;;2.49
70819;BMP280;58439;51.046;13.692;2022-12-20T16:14:58;100204.09;;;2.46
70819;BMP280;58439;51.046;13.692;2022-12-20T16:17:26;100203.94;;;2.48
70819;BMP280;58439;51.046;13.692;2022-12-20T16:19:55;100209.00;;;2.49
70819;BMP280;58439;51.046;13.692;2022-12-20T16:22:24;100208.28;;;2.47
70819;BMP280;58439;51.046;13.692;2022-12-20T16:24:52;100210.31;;;2.44
70819;BMP280;58439;51.046;13.692;2022-12-20T16:27:20;100212.78;;;2.45